createdAt,value
2019-05-18T00:00:48.318Z,92.9
2019-05-18T00:01:49.352Z,93
2019-05-18T00:02:51.216Z,93
2019-05-18T00:03:53.087Z,93
2019-05-18T00:04:54.950Z,93
2019-05-18T00:05:56.845Z,93
2019-05-18T00:06:58.432Z,93
2019-05-18T00:08:00.300Z,93.1
2019-05-18T00:09:02.175Z,93
2019-05-18T00:10:03.481Z,93
2019-05-18T00:11:05.339Z,93.1
2019-05-18T00:12:07.223Z,93.1
2019-05-18T00:13:08.864Z,92.9
2019-05-18T00:14:10.732Z,93.1
2019-05-18T00:15:12.597Z,93.2
2019-05-18T00:16:14.460Z,93.2
2019-05-18T00:17:25.736Z,93.1
2019-05-18T00:18:27.587Z,93.1
2019-05-18T00:19:29.465Z,93.1
2019-05-18T00:20:31.331Z,93.1
2019-05-18T00:21:33.195Z,93
2019-05-18T00:22:35.056Z,93
2019-05-18T00:23:36.664Z,93.1
2019-05-18T00:24:38.260Z,93.1
2019-05-18T00:25:40.127Z,93.1
2019-05-18T00:26:41.994Z,93.1
2019-05-18T00:27:43.861Z,93
2019-05-18T00:28:45.873Z,93
2019-05-18T00:29:47.745Z,93
2019-05-18T00:30:49.602Z,93
2019-05-18T00:31:51.222Z,92.9
2019-05-18T00:32:53.089Z,93
2019-05-18T00:33:54.953Z,93
2019-05-18T00:34:56.820Z,93.1
2019-05-18T00:35:58.687Z,93.2
2019-05-18T00:37:00.281Z,93.2
2019-05-18T00:38:02.145Z,93.2
2019-05-18T00:39:04.010Z,93.2
2019-05-18T00:40:05.872Z,93.2
2019-05-18T00:41:07.459Z,93.3
2019-05-18T00:42:09.330Z,93.3
2019-05-18T00:43:10.921Z,93.3
2019-05-18T00:44:12.523Z,93.3
2019-05-18T00:45:14.391Z,93.2
2019-05-18T00:46:16.016Z,93.2
2019-05-18T00:47:17.046Z,93.3
2019-05-18T00:48:18.913Z,93.3
2019-05-18T00:49:20.777Z,93.4
2019-05-18T00:50:22.643Z,93.4
2019-05-18T00:51:24.510Z,93.4
2019-05-18T00:52:26.373Z,93.4
2019-05-18T00:53:28.236Z,93.4
2019-05-18T00:54:29.825Z,93.4
2019-05-18T00:55:31.414Z,93.4
2019-05-18T00:56:33.011Z,93.4
2019-05-18T00:57:34.878Z,93.3
2019-05-18T00:58:36.743Z,93.4
2019-05-18T00:59:38.611Z,93.3
2019-05-18T01:00:40.476Z,93.4
2019-05-18T01:01:42.066Z,93.4
2019-05-18T01:02:43.935Z,93.4
2019-05-18T01:03:45.794Z,93.4
2019-05-18T01:04:47.661Z,93.4
2019-05-18T01:05:49.530Z,93.3
2019-05-18T01:06:51.390Z,93.3
2019-05-18T01:07:53.287Z,93.2
2019-05-18T01:08:55.210Z,93.2
2019-05-18T01:09:57.073Z,93.2
2019-05-18T01:10:58.666Z,93.2
2019-05-18T01:12:00.532Z,93.3
2019-05-18T01:13:02.399Z,93.3
2019-05-18T01:14:04.279Z,93.3
2019-05-18T01:15:06.135Z,93.4
2019-05-18T01:16:07.724Z,93.4
2019-05-18T01:17:09.593Z,93.4
2019-05-18T01:18:11.459Z,93.4
2019-05-18T01:19:13.056Z,93.4
2019-05-18T01:20:14.651Z,93.3
2019-05-18T01:21:16.234Z,93.4
2019-05-18T01:22:18.121Z,93.4
2019-05-18T01:23:19.992Z,93.4
2019-05-18T01:24:21.856Z,93.5
2019-05-18T01:25:23.718Z,93.5
2019-05-18T01:26:25.583Z,93.4
2019-05-18T01:27:27.443Z,93.6
2019-05-18T01:28:29.040Z,93.7
2019-05-18T01:29:30.913Z,93.8
2019-05-18T01:30:32.226Z,93.8
2019-05-18T01:31:33.528Z,93.7
2019-05-18T01:32:35.393Z,93.7
2019-05-18T01:33:36.423Z,93.8
2019-05-18T01:34:38.011Z,93.9
2019-05-18T01:35:39.974Z,93.9
2019-05-18T01:36:41.836Z,93.8
2019-05-18T01:37:43.700Z,93.8
2019-05-18T01:38:45.567Z,93.7
2019-05-18T01:39:47.432Z,93.7
2019-05-18T01:40:49.303Z,93.7
2019-05-18T01:41:51.168Z,93.7
2019-05-18T01:42:53.045Z,93.8
2019-05-18T01:43:54.915Z,93.8
2019-05-18T01:44:56.776Z,93.8
2019-05-18T01:45:58.641Z,93.8
2019-05-18T01:47:00.507Z,93.9
2019-05-18T01:48:14.669Z,93.9
2019-05-18T01:49:16.630Z,93.9
2019-05-18T01:50:18.496Z,93.9
2019-05-18T01:51:20.376Z,93.8
2019-05-18T01:52:22.242Z,93.8
2019-05-18T01:53:24.103Z,93.8
2019-05-18T01:54:25.979Z,93.8
2019-05-18T01:55:27.841Z,93.8
2019-05-18T01:56:29.705Z,93.8
2019-05-18T01:57:31.569Z,93.9
2019-05-18T01:58:33.439Z,93.8
2019-05-18T01:59:35.297Z,93.8
2019-05-18T02:00:37.162Z,93.7
2019-05-18T02:01:39.025Z,93.7
2019-05-18T02:02:40.983Z,93.7
2019-05-18T02:03:42.877Z,93.6
2019-05-18T02:04:44.849Z,93.6
2019-05-18T02:05:46.712Z,93.6
2019-05-18T02:06:48.309Z,93.5
2019-05-18T02:07:50.177Z,93.6
2019-05-18T02:08:52.238Z,93.6
2019-05-18T02:09:54.100Z,93.7
2019-05-18T02:10:55.963Z,93.6
2019-05-18T02:11:57.827Z,93.6
2019-05-18T02:12:59.692Z,93.6
2019-05-18T02:14:01.568Z,93.7
2019-05-18T02:15:03.222Z,93.7
2019-05-18T02:16:05.086Z,93.7
2019-05-18T02:17:06.946Z,93.7
2019-05-18T02:18:08.811Z,93.8
2019-05-18T02:19:10.684Z,93.7
2019-05-18T02:20:12.272Z,93.7
2019-05-18T02:21:14.135Z,93.8
2019-05-18T02:22:15.998Z,93.8
2019-05-18T02:23:17.861Z,93.8
2019-05-18T02:24:19.738Z,93.8
2019-05-18T02:25:21.602Z,94
2019-05-18T02:26:23.473Z,93.9
2019-05-18T02:27:25.341Z,93.9
2019-05-18T02:28:26.926Z,94
2019-05-18T02:29:28.792Z,93.9
2019-05-18T02:30:30.378Z,93.9
2019-05-18T02:31:32.243Z,93.9
2019-05-18T02:32:34.112Z,93.8
2019-05-18T02:33:35.765Z,93.9
2019-05-18T02:34:37.626Z,93.9
2019-05-18T02:35:39.493Z,94
2019-05-18T02:36:41.360Z,94
2019-05-18T02:37:43.465Z,94
2019-05-18T02:38:45.330Z,94
2019-05-18T02:39:47.215Z,94
2019-05-18T02:40:49.082Z,94.1
2019-05-18T02:41:50.950Z,94.1
2019-05-18T02:42:52.818Z,94.1
2019-05-18T02:43:54.683Z,94
2019-05-18T02:44:56.268Z,93.9
2019-05-18T02:45:58.145Z,93.8
2019-05-18T02:47:00.013Z,93.8
2019-05-18T02:48:01.612Z,93.8
2019-05-18T02:49:02.943Z,93.8
2019-05-18T02:50:04.544Z,93.8
2019-05-18T02:51:10.498Z,93.8
2019-05-18T02:52:13.418Z,93.8
2019-05-18T02:53:15.281Z,93.9
2019-05-18T02:54:17.155Z,93.9
2019-05-18T02:55:19.017Z,94
2019-05-18T02:56:20.885Z,94
2019-05-18T02:57:22.182Z,94
2019-05-18T02:58:24.060Z,94
2019-05-18T02:59:25.639Z,94.1
2019-05-18T03:00:27.502Z,94.2
2019-05-18T03:01:29.367Z,94.2
2019-05-18T03:02:30.953Z,94.3
2019-05-18T03:03:32.826Z,94.4
2019-05-18T03:04:34.688Z,94.4
2019-05-18T03:05:36.556Z,94.4
2019-05-18T03:06:38.423Z,94.5
2019-05-18T03:07:40.284Z,94.6
2019-05-18T03:08:42.153Z,94.6
2019-05-18T03:09:44.029Z,94.6
2019-05-18T03:10:45.626Z,94.6
2019-05-18T03:11:47.521Z,94.5
2019-05-18T03:12:49.387Z,94.4
2019-05-18T03:13:51.252Z,94.3
2019-05-18T03:14:53.116Z,94.3
2019-05-18T03:15:54.980Z,94.2
2019-05-18T03:16:56.840Z,94.2
2019-05-18T03:17:58.706Z,94.2
2019-05-18T03:19:09.458Z,94.2
2019-05-18T03:20:11.366Z,94.2
2019-05-18T03:21:13.226Z,94.2
2019-05-18T03:22:14.818Z,94.2
2019-05-18T03:23:16.683Z,94.2
2019-05-18T03:24:18.545Z,94.3
2019-05-18T03:25:20.437Z,94.3
2019-05-18T03:26:21.753Z,94.4
2019-05-18T03:27:23.621Z,94.4
2019-05-18T03:28:25.207Z,94.4
2019-05-18T03:29:27.066Z,94.4
2019-05-18T03:30:28.670Z,94.4
2019-05-18T03:31:30.523Z,94.4
2019-05-18T03:32:32.400Z,94.4
2019-05-18T03:33:34.444Z,94.4
2019-05-18T03:34:36.319Z,94.5
2019-05-18T03:35:38.214Z,94.5
2019-05-18T03:36:40.115Z,94.5
2019-05-18T03:37:41.984Z,94.6
2019-05-18T03:38:43.858Z,94.5
2019-05-18T03:39:45.722Z,94.6
2019-05-18T03:40:47.582Z,94.6
2019-05-18T03:41:49.448Z,94.8
2019-05-18T03:42:51.320Z,94.9
2019-05-18T03:43:53.185Z,94.9
2019-05-18T03:44:55.054Z,94.9
2019-05-18T03:45:56.920Z,95
2019-05-18T03:46:58.522Z,95
2019-05-18T03:48:00.389Z,95.1
2019-05-18T03:49:02.256Z,94.9
2019-05-18T03:50:04.123Z,94.8
2019-05-18T03:51:06.000Z,94.7
2019-05-18T03:52:07.607Z,94.6
2019-05-18T03:53:09.180Z,94.6
2019-05-18T03:54:11.047Z,94.6
2019-05-18T03:55:12.913Z,94.6
2019-05-18T03:56:14.509Z,94.6
2019-05-18T03:57:16.365Z,94.6
2019-05-18T03:58:17.937Z,94.7
2019-05-18T03:59:19.811Z,94.6
2019-05-18T04:00:21.685Z,94.5
2019-05-18T04:01:23.275Z,94.4
2019-05-18T04:02:24.870Z,94.4
2019-05-18T04:03:26.735Z,94.3
2019-05-18T04:04:28.324Z,94.3
2019-05-18T04:05:29.895Z,94.3
2019-05-18T04:06:31.488Z,94.4
2019-05-18T04:07:33.057Z,94.4
2019-05-18T04:08:34.919Z,94.4
2019-05-18T04:09:36.781Z,94.4
2019-05-18T04:10:38.645Z,94.3
2019-05-18T04:11:40.514Z,94.3
2019-05-18T04:12:42.102Z,94.3
2019-05-18T04:13:43.967Z,94.3
2019-05-18T04:14:45.834Z,94.3
2019-05-18T04:15:47.698Z,94.4
2019-05-18T04:16:49.272Z,94.4
2019-05-18T04:17:51.141Z,94.3
2019-05-18T04:18:53.016Z,94.2
2019-05-18T04:19:54.864Z,94.3
2019-05-18T04:20:56.739Z,94.4
2019-05-18T04:21:58.604Z,94.4
2019-05-18T04:23:00.474Z,94.4
2019-05-18T04:24:02.369Z,94.4
2019-05-18T04:25:04.238Z,94.4
2019-05-18T04:26:06.107Z,94.3
2019-05-18T04:27:07.975Z,94.4
2019-05-18T04:28:09.591Z,94.4
2019-05-18T04:29:10.896Z,94.6
2019-05-18T04:30:12.764Z,94.6
2019-05-18T04:31:14.634Z,94.7
2019-05-18T04:32:16.500Z,94.7
2019-05-18T04:33:18.379Z,94.5
2019-05-18T04:34:20.260Z,94.4
2019-05-18T04:35:22.128Z,94.4
2019-05-18T04:36:24.010Z,94.3
2019-05-18T04:37:25.321Z,94.3
2019-05-18T04:38:27.185Z,94.2
2019-05-18T04:39:28.783Z,94.1
2019-05-18T04:40:29.815Z,94.1
2019-05-18T04:41:31.688Z,93.9
2019-05-18T04:42:33.559Z,93.8
2019-05-18T04:43:35.426Z,93.7
2019-05-18T04:44:37.293Z,93.6
2019-05-18T04:45:39.164Z,93.6
2019-05-18T04:46:41.182Z,93.7
2019-05-18T04:47:43.052Z,93.6
2019-05-18T04:48:50.018Z,93.8
2019-05-18T04:50:06.256Z,93.8
2019-05-18T04:51:07.987Z,93.9
2019-05-18T04:52:09.864Z,94.2
2019-05-18T04:53:11.738Z,94.3
2019-05-18T04:54:13.337Z,94.3
2019-05-18T04:55:15.213Z,94.4
2019-05-18T04:56:17.080Z,94.7
2019-05-18T04:57:18.952Z,94.7
2019-05-18T04:58:20.829Z,94.7
2019-05-18T04:59:22.425Z,94.7
2019-05-18T05:00:24.298Z,94.7
2019-05-18T05:01:26.172Z,94.6
2019-05-18T05:02:28.050Z,94.7
2019-05-18T05:03:29.630Z,94.6
2019-05-18T05:04:31.225Z,94.4
2019-05-18T05:05:33.097Z,94.2
2019-05-18T05:06:34.971Z,94.1
2019-05-18T05:07:36.841Z,94.3
2019-05-18T05:08:38.710Z,94.1
2019-05-18T05:09:40.576Z,93.8
2019-05-18T05:10:42.448Z,93.5
2019-05-18T05:11:44.318Z,93.3
2019-05-18T05:12:46.219Z,93.3
2019-05-18T05:13:48.113Z,93
2019-05-18T05:14:49.976Z,92.9
2019-05-18T05:15:51.844Z,92.9
2019-05-18T05:16:53.436Z,93
2019-05-18T05:17:55.307Z,92.9
2019-05-18T05:18:57.176Z,93
2019-05-18T05:19:58.762Z,93.1
2019-05-18T05:21:00.380Z,93.2
2019-05-18T05:22:02.253Z,93.5
2019-05-18T05:23:04.346Z,93.4
2019-05-18T05:24:06.270Z,93.5
2019-05-18T05:25:08.134Z,93.4
2019-05-18T05:26:10.009Z,93.6
2019-05-18T05:27:11.878Z,93.5
2019-05-18T05:28:13.469Z,93.1
2019-05-18T05:29:15.336Z,93
2019-05-18T05:30:17.215Z,92.8
2019-05-18T05:31:19.076Z,92.8
2019-05-18T05:32:20.950Z,92.9
2019-05-18T05:33:22.823Z,93.1
2019-05-18T05:34:24.448Z,93.2
2019-05-18T05:35:26.321Z,93.1
2019-05-18T05:36:28.191Z,93.1
2019-05-18T05:37:29.790Z,92.9
2019-05-18T05:38:31.665Z,92.8
2019-05-18T05:39:33.535Z,92.9
2019-05-18T05:40:35.406Z,92.9
2019-05-18T05:41:36.987Z,92.9
2019-05-18T05:42:38.565Z,92.8
2019-05-18T05:43:40.438Z,93
2019-05-18T05:44:42.312Z,93
2019-05-18T05:45:43.618Z,92.8
2019-05-18T05:46:45.507Z,92.8
2019-05-18T05:47:47.376Z,92.8
2019-05-18T05:48:48.967Z,93.1
2019-05-18T05:49:50.848Z,93.2
2019-05-18T05:50:52.725Z,92.8
2019-05-18T05:51:54.323Z,93
2019-05-18T05:52:56.192Z,93
2019-05-18T05:53:58.062Z,92.1
2019-05-18T05:54:59.934Z,92.1
2019-05-18T05:56:01.526Z,92.2
2019-05-18T05:57:03.232Z,92.4
2019-05-18T05:58:04.543Z,92.1
2019-05-18T05:59:06.836Z,92.2
2019-05-18T06:00:08.458Z,92.3
2019-05-18T06:01:10.317Z,92.2
2019-05-18T06:02:12.193Z,92.2
2019-05-18T06:03:14.069Z,92.4
2019-05-18T06:04:15.935Z,92.4
2019-05-18T06:05:17.806Z,92.1
2019-05-18T06:06:22.903Z,92.2
2019-05-18T06:07:24.962Z,91.9
2019-05-18T06:08:26.831Z,91.4
2019-05-18T06:09:28.433Z,91.6
2019-05-18T06:10:30.296Z,91.6
2019-05-18T06:11:32.165Z,90.9
2019-05-18T06:12:34.034Z,90.8
2019-05-18T06:13:35.907Z,91.1
2019-05-18T06:14:37.775Z,91.2
2019-05-18T06:15:39.643Z,91
2019-05-18T06:16:41.524Z,91.1
2019-05-18T06:17:43.388Z,90.6
2019-05-18T06:18:45.024Z,90.3
2019-05-18T06:19:47.112Z,90.3
2019-05-18T06:20:52.301Z,90.1
2019-05-18T06:21:53.881Z,90
2019-05-18T06:22:55.477Z,90
2019-05-18T06:23:57.346Z,90.1
2019-05-18T06:24:59.212Z,90
2019-05-18T06:26:00.807Z,89.4
2019-05-18T06:27:02.706Z,89.5
2019-05-18T06:28:04.630Z,90
2019-05-18T06:29:06.223Z,90
2019-05-18T06:30:07.853Z,90.1
2019-05-18T06:31:09.532Z,90.5
2019-05-18T06:32:11.407Z,90.5
2019-05-18T06:33:13.021Z,90.1
2019-05-18T06:34:14.898Z,90.3
2019-05-18T06:35:16.766Z,90.1
2019-05-18T06:36:18.646Z,89.6
2019-05-18T06:37:20.522Z,88.1
2019-05-18T06:38:22.398Z,88.9
2019-05-18T06:39:24.272Z,88.9
2019-05-18T06:40:26.148Z,89.2
2019-05-18T06:41:28.027Z,89.4
2019-05-18T06:42:29.622Z,89
2019-05-18T06:43:31.520Z,89.2
2019-05-18T06:44:33.120Z,89.4
2019-05-18T06:45:34.999Z,88.9
2019-05-18T06:46:36.874Z,89.1
2019-05-18T06:47:38.753Z,89.3
2019-05-18T06:48:40.619Z,89
2019-05-18T06:49:42.503Z,89
2019-05-18T06:50:44.370Z,89.1
2019-05-18T06:51:45.965Z,88.8
2019-05-18T06:52:47.841Z,88.7
2019-05-18T06:53:49.780Z,88.4
2019-05-18T06:54:51.650Z,90
2019-05-18T06:55:53.521Z,89.3
2019-05-18T06:56:55.392Z,88.6
2019-05-18T06:57:57.269Z,87.4
2019-05-18T06:58:59.132Z,87.3
2019-05-18T07:00:01.006Z,87.2
2019-05-18T07:01:02.882Z,87.1
2019-05-18T07:02:04.755Z,87.3
2019-05-18T07:03:06.352Z,87.6
2019-05-18T07:04:08.234Z,87.6
2019-05-18T07:05:10.100Z,86.6
2019-05-18T07:06:11.416Z,86.7
2019-05-18T07:07:13.292Z,87.4
2019-05-18T07:08:15.170Z,87.5
2019-05-18T07:09:16.767Z,88.1
2019-05-18T07:10:18.644Z,87.7
2019-05-18T07:11:20.674Z,87.2
2019-05-18T07:12:22.586Z,87.3
2019-05-18T07:13:24.489Z,87.4
2019-05-18T07:14:26.740Z,86.6
2019-05-18T07:15:28.381Z,85.5
2019-05-18T07:16:30.257Z,84.8
2019-05-18T07:17:35.029Z,85.8
2019-05-18T07:18:36.618Z,86
2019-05-18T07:19:38.221Z,86.1
2019-05-18T07:20:40.092Z,86.6
2019-05-18T07:21:41.976Z,85
2019-05-18T07:22:43.568Z,83.6
2019-05-18T07:23:45.650Z,83.6
2019-05-18T07:24:47.534Z,84.5
2019-05-18T07:25:49.443Z,84.4
2019-05-18T07:26:51.322Z,85.3
2019-05-18T07:27:53.196Z,83.9
2019-05-18T07:28:55.068Z,83.4
2019-05-18T07:29:56.951Z,83
2019-05-18T07:30:58.829Z,83.6
2019-05-18T07:32:00.952Z,83.8
2019-05-18T07:33:02.827Z,83.4
2019-05-18T07:34:04.703Z,82.8
2019-05-18T07:35:06.581Z,84.2
2019-05-18T07:36:08.455Z,83
2019-05-18T07:37:10.325Z,82.9
2019-05-18T07:38:12.201Z,84
2019-05-18T07:39:14.076Z,82.4
2019-05-18T07:40:15.952Z,81.3
2019-05-18T07:41:17.822Z,81.3
2019-05-18T07:42:19.689Z,82.1
2019-05-18T07:43:21.562Z,80
2019-05-18T07:44:23.152Z,80.1
2019-05-18T07:45:25.026Z,80.2
2019-05-18T07:46:26.898Z,80.7
2019-05-18T07:47:28.768Z,82.1
2019-05-18T07:48:30.648Z,82.8
2019-05-18T07:49:31.679Z,81.2
2019-05-18T07:50:33.275Z,81.3
2019-05-18T07:51:37.809Z,82.2
2019-05-18T07:52:39.679Z,82.7
2019-05-18T07:53:41.582Z,83
2019-05-18T07:54:43.456Z,82.5
2019-05-18T07:55:45.330Z,81.5
2019-05-18T07:56:47.208Z,80.3
2019-05-18T07:57:49.082Z,80
2019-05-18T07:58:50.667Z,79.8
2019-05-18T07:59:52.546Z,80.7
2019-05-18T08:00:53.579Z,80.5
2019-05-18T08:01:55.464Z,80.2
2019-05-18T08:02:57.050Z,81.1
2019-05-18T08:03:58.919Z,79.8
2019-05-18T08:05:00.792Z,78.1
2019-05-18T08:06:02.779Z,77.9
2019-05-18T08:07:04.721Z,78
2019-05-18T08:08:06.293Z,79
2019-05-18T08:09:07.611Z,79.3
2019-05-18T08:10:09.490Z,79.3
2019-05-18T08:11:11.361Z,79.7
2019-05-18T08:12:12.957Z,79.6
2019-05-18T08:13:14.830Z,80
2019-05-18T08:14:16.451Z,80.5
2019-05-18T08:15:18.063Z,79.9
2019-05-18T08:16:19.942Z,78.5
2019-05-18T08:17:21.248Z,78.8
2019-05-18T08:18:23.117Z,80.1
2019-05-18T08:19:25.011Z,77.7
2019-05-18T08:20:26.884Z,77.1
2019-05-18T08:21:28.765Z,77
2019-05-18T08:22:30.628Z,75.9
2019-05-18T08:23:32.541Z,77.3
2019-05-18T08:24:34.392Z,78.7
2019-05-18T08:25:36.275Z,77.8
2019-05-18T08:26:38.135Z,76.6
2019-05-18T08:27:40.006Z,77.9
2019-05-18T08:28:41.888Z,75.4
2019-05-18T08:29:43.749Z,77
2019-05-18T08:30:45.622Z,77.1
2019-05-18T08:31:47.495Z,76.5
2019-05-18T08:32:49.362Z,77
2019-05-18T08:33:51.287Z,76.2
2019-05-18T08:34:52.882Z,77.4
2019-05-18T08:35:54.753Z,76.2
2019-05-18T08:36:56.624Z,75
2019-05-18T08:37:58.567Z,74.9
2019-05-18T08:39:00.444Z,73.3
2019-05-18T08:40:02.356Z,72.9
2019-05-18T08:41:04.241Z,72.3
2019-05-18T08:42:06.118Z,74
2019-05-18T08:43:07.989Z,74.7
2019-05-18T08:44:09.859Z,74.1
2019-05-18T08:45:11.195Z,72.5
2019-05-18T08:46:13.063Z,72.1
2019-05-18T08:47:14.936Z,72.4
2019-05-18T08:48:16.810Z,73.8
2019-05-18T08:49:18.697Z,73.4
2019-05-18T08:50:20.566Z,72.5
2019-05-18T08:51:22.170Z,75
2019-05-18T08:52:24.045Z,73.1
2019-05-18T08:53:25.918Z,73.4
2019-05-18T08:54:27.794Z,69.4
2019-05-18T08:55:29.667Z,68.8
2019-05-18T08:56:31.570Z,68.6
2019-05-18T08:57:33.438Z,68.5
2019-05-18T08:58:35.312Z,67.8
2019-05-18T08:59:40.395Z,69
2019-05-18T09:00:42.282Z,69.3
2019-05-18T09:01:43.893Z,68.1
2019-05-18T09:02:45.766Z,67.8
2019-05-18T09:03:47.363Z,68
2019-05-18T09:04:49.227Z,66.5
2019-05-18T09:05:51.109Z,67.8
2019-05-18T09:06:52.714Z,70.2
2019-05-18T09:07:54.023Z,70.7
2019-05-18T09:08:55.896Z,68.3
2019-05-18T09:09:57.766Z,69.9
2019-05-18T09:10:59.361Z,67.1
2019-05-18T09:12:01.236Z,65.2
2019-05-18T09:13:03.217Z,62.6
2019-05-18T09:14:05.091Z,64.3
2019-05-18T09:15:06.974Z,65.1
2019-05-18T09:16:08.839Z,67.6
2019-05-18T09:17:10.427Z,67.1
2019-05-18T09:18:12.301Z,66.6
2019-05-18T09:19:13.894Z,64.2
2019-05-18T09:20:15.780Z,64.5
2019-05-18T09:21:17.409Z,66.2
2019-05-18T09:22:23.847Z,68
2019-05-18T09:23:25.712Z,67.3
2019-05-18T09:24:27.028Z,66.9
2019-05-18T09:25:28.899Z,67.9
2019-05-18T09:26:30.810Z,65
2019-05-18T09:27:32.669Z,65.5
2019-05-18T09:28:34.757Z,61.8
2019-05-18T09:29:36.335Z,61.9
2019-05-18T09:30:40.859Z,61.6
2019-05-18T09:31:43.101Z,61
2019-05-18T09:32:44.972Z,62.1
2019-05-18T09:33:46.844Z,60.6
2019-05-18T09:34:48.711Z,64.8
2019-05-18T09:35:50.594Z,61.2
2019-05-18T09:36:52.451Z,62.6
2019-05-18T09:37:54.332Z,62.3
2019-05-18T09:38:56.199Z,62.5
2019-05-18T09:39:57.810Z,62.5
2019-05-18T09:40:59.130Z,61.6
2019-05-18T09:42:00.723Z,62.9
2019-05-18T09:43:02.611Z,63.4
2019-05-18T09:44:03.925Z,63.2
2019-05-18T09:45:05.793Z,62.1
2019-05-18T09:46:07.668Z,62.4
2019-05-18T09:47:09.540Z,62.5
2019-05-18T09:48:11.410Z,63.4
2019-05-18T09:49:13.279Z,62.5
2019-05-18T09:50:15.162Z,63
2019-05-18T09:51:17.050Z,65.2
2019-05-18T09:52:18.920Z,62.6
2019-05-18T09:53:20.788Z,62.1
2019-05-18T09:54:22.657Z,63.9
2019-05-18T09:55:24.529Z,63.2
2019-05-18T09:56:26.169Z,62.8
2019-05-18T09:57:28.048Z,63.3
2019-05-18T09:58:29.913Z,61.3
2019-05-18T09:59:31.800Z,62.4
2019-05-18T10:00:39.306Z,62.9
2019-05-18T10:01:41.425Z,63.6
2019-05-18T10:02:43.339Z,60.5
2019-05-18T10:03:44.927Z,61.8
2019-05-18T10:04:46.796Z,61.8
2019-05-18T10:05:48.676Z,62.8
2019-05-18T10:06:49.982Z,61.6
2019-05-18T10:07:51.848Z,60
2019-05-18T10:08:53.736Z,61.2
2019-05-18T10:09:55.606Z,63.9
2019-05-18T10:10:57.477Z,62.3
2019-05-18T10:11:59.344Z,61.5
2019-05-18T10:13:01.218Z,62.2
2019-05-18T10:14:03.095Z,61.3
2019-05-18T10:15:04.988Z,65
2019-05-18T10:16:06.846Z,63.6
2019-05-18T10:17:08.166Z,60.4
2019-05-18T10:18:09.279Z,60.6
2019-05-18T10:19:11.148Z,60.9
2019-05-18T10:20:13.018Z,59.8
2019-05-18T10:21:14.888Z,60.4
2019-05-18T10:22:16.759Z,60.9
2019-05-18T10:23:18.648Z,61
2019-05-18T10:24:20.512Z,62.8
2019-05-18T10:25:22.383Z,61
2019-05-18T10:26:24.254Z,60.6
2019-05-18T10:27:26.122Z,60.7
2019-05-18T10:28:27.995Z,63.3
2019-05-18T10:29:29.860Z,59.7
2019-05-18T10:30:31.465Z,59.7
2019-05-18T10:31:33.336Z,60.8
2019-05-18T10:32:35.209Z,62.2
2019-05-18T10:33:37.079Z,62.4
2019-05-18T10:34:38.950Z,60.9
2019-05-18T10:35:40.820Z,59.5
2019-05-18T10:36:42.712Z,59.2
2019-05-18T10:37:44.310Z,59.6
2019-05-18T10:38:45.639Z,61
2019-05-18T10:39:46.946Z,60.3
2019-05-18T10:40:48.818Z,61.1
2019-05-18T10:41:50.686Z,59.5
2019-05-18T10:42:52.558Z,60.6
2019-05-18T10:43:54.431Z,61.9
2019-05-18T10:44:56.301Z,59.3
2019-05-18T10:45:58.175Z,59.6
2019-05-18T10:47:00.050Z,58.7
2019-05-18T10:48:02.034Z,59
2019-05-18T10:49:04.160Z,58
2019-05-18T10:50:06.030Z,58.8
2019-05-18T10:51:07.924Z,59.5
2019-05-18T10:52:09.794Z,60.3
2019-05-18T10:53:11.393Z,58.4
2019-05-18T10:54:28.748Z,60.3
2019-05-18T10:55:30.678Z,58.2
2019-05-18T10:56:32.309Z,57.7
2019-05-18T10:57:34.179Z,58.5
2019-05-18T10:58:36.053Z,58.1
2019-05-18T10:59:37.926Z,57.9
2019-05-18T11:00:39.532Z,57.5
2019-05-18T11:01:44.312Z,58.5
2019-05-18T11:02:46.182Z,59.5
2019-05-18T11:03:48.086Z,59.2
2019-05-18T11:04:49.944Z,58.9
2019-05-18T11:05:51.538Z,59.2
2019-05-18T11:06:53.156Z,58.8
2019-05-18T11:07:55.027Z,61.1
2019-05-18T11:08:56.901Z,59.8
2019-05-18T11:09:58.775Z,60.2
2019-05-18T11:11:00.641Z,57.5
2019-05-18T11:12:02.515Z,57.5
2019-05-18T11:13:04.390Z,56
2019-05-18T11:14:06.270Z,55.7
2019-05-18T11:15:08.147Z,56.2
2019-05-18T11:16:09.190Z,56.8
2019-05-18T11:17:11.061Z,55.7
2019-05-18T11:18:12.955Z,57.5
2019-05-18T11:19:14.829Z,56.2
2019-05-18T11:20:16.701Z,57.7
2019-05-18T11:21:18.586Z,56.8
2019-05-18T11:22:20.177Z,56.7
2019-05-18T11:23:21.510Z,55.8
2019-05-18T11:24:23.385Z,55.3
2019-05-18T11:25:24.988Z,54.9
2019-05-18T11:26:26.859Z,55.6
2019-05-18T11:27:28.730Z,55.5
2019-05-18T11:28:30.610Z,55.7
2019-05-18T11:29:32.226Z,56.5
2019-05-18T11:30:34.097Z,58.4
2019-05-18T11:31:35.980Z,58.1
2019-05-18T11:32:37.850Z,57.1
2019-05-18T11:33:39.452Z,56.7
2019-05-18T11:34:40.479Z,56.4
2019-05-18T11:35:42.349Z,56.9
2019-05-18T11:36:44.220Z,55.9
2019-05-18T11:37:46.092Z,55.7
2019-05-18T11:38:47.685Z,55.7
2019-05-18T11:39:49.279Z,57.5
2019-05-18T11:40:51.149Z,57.5
2019-05-18T11:41:52.747Z,58.2
2019-05-18T11:42:54.617Z,56.4
2019-05-18T11:43:56.486Z,56.3
2019-05-18T11:44:58.354Z,55
2019-05-18T11:45:59.959Z,56.4
2019-05-18T11:47:01.828Z,56.1
2019-05-18T11:48:03.718Z,54.7
2019-05-18T11:49:05.444Z,55.8
2019-05-18T11:50:07.025Z,56.1
2019-05-18T11:51:08.926Z,55.6
2019-05-18T11:52:10.799Z,56.8
2019-05-18T11:53:12.119Z,56.7
2019-05-18T11:54:13.701Z,54.7
2019-05-18T11:55:15.585Z,54.7
2019-05-18T11:56:17.187Z,54.6
2019-05-18T11:57:19.059Z,53.9
2019-05-18T11:58:20.940Z,52.6
2019-05-18T11:59:22.810Z,54
2019-05-18T12:00:24.404Z,55.2
2019-05-18T12:01:25.986Z,55.9
2019-05-18T12:02:27.857Z,54.5
2019-05-18T12:03:29.453Z,54.2
2019-05-18T12:04:31.322Z,53
2019-05-18T12:05:33.194Z,52
2019-05-18T12:06:34.801Z,53.4
2019-05-18T12:07:36.387Z,53.6
2019-05-18T12:08:38.263Z,54.9
2019-05-18T12:09:40.136Z,55.4
2019-05-18T12:10:42.050Z,54.5
2019-05-18T12:11:43.907Z,53.5
2019-05-18T12:12:45.495Z,55
2019-05-18T12:13:47.366Z,53.9
2019-05-18T12:14:49.252Z,53.4
2019-05-18T12:15:51.128Z,52.9
2019-05-18T12:16:53.006Z,52.9
2019-05-18T12:17:54.892Z,55
2019-05-18T12:18:58.206Z,53.1
2019-05-18T12:20:00.078Z,53
2019-05-18T12:21:01.953Z,54.1
2019-05-18T12:22:03.568Z,53.8
2019-05-18T12:23:09.073Z,52.4
2019-05-18T12:24:16.282Z,53.8
2019-05-18T12:25:17.866Z,54.8
2019-05-18T12:26:19.742Z,52.6
2019-05-18T12:27:21.605Z,53.9
2019-05-18T12:28:23.503Z,52.5
2019-05-18T12:29:25.417Z,54
2019-05-18T12:30:27.292Z,54.7
2019-05-18T12:31:29.159Z,53.8
2019-05-18T12:32:30.770Z,54.5
2019-05-18T12:33:32.625Z,52.2
2019-05-18T12:34:34.499Z,52.4
2019-05-18T12:35:36.374Z,52.4
2019-05-18T12:36:38.253Z,51.1
2019-05-18T12:37:40.099Z,51.4
2019-05-18T12:38:41.988Z,51.5
2019-05-18T12:39:43.584Z,51.9
2019-05-18T12:40:45.759Z,50.9
2019-05-18T12:41:47.631Z,48.7
2019-05-18T12:42:49.508Z,49.5
2019-05-18T12:43:51.104Z,51.9
2019-05-18T12:44:52.977Z,53.5
2019-05-18T12:45:54.850Z,52.7
2019-05-18T12:46:56.731Z,49.8
2019-05-18T12:47:58.644Z,48.4
2019-05-18T12:49:00.517Z,51.2
2019-05-18T12:50:02.388Z,51.7
2019-05-18T12:51:04.261Z,49.7
2019-05-18T12:52:05.857Z,49.6
2019-05-18T12:53:07.732Z,48.9
2019-05-18T12:54:09.610Z,49.2
2019-05-18T12:55:11.210Z,50.2
2019-05-18T12:56:13.079Z,52.9
2019-05-18T12:57:14.962Z,50.4
2019-05-18T12:58:16.902Z,52.9
2019-05-18T12:59:18.805Z,51.3
2019-05-18T13:00:20.687Z,50.9
2019-05-18T13:01:22.383Z,49.5
2019-05-18T13:02:23.995Z,50.1
2019-05-18T13:03:25.866Z,49.4
2019-05-18T13:04:27.547Z,48.6
2019-05-18T13:05:29.456Z,48.9
2019-05-18T13:06:31.054Z,49.3
2019-05-18T13:07:32.937Z,49.7
2019-05-18T13:08:34.820Z,50.7
2019-05-18T13:09:36.695Z,48.9
2019-05-18T13:10:38.571Z,48.9
2019-05-18T13:11:40.444Z,47
2019-05-18T13:12:42.321Z,47
2019-05-18T13:13:44.194Z,46.7
2019-05-18T13:14:46.126Z,46.9
2019-05-18T13:15:47.979Z,45.9
2019-05-18T13:16:49.853Z,48.2
2019-05-18T13:17:51.447Z,47.8
2019-05-18T13:18:53.326Z,46.6
2019-05-18T13:19:55.200Z,46.8
2019-05-18T13:20:56.786Z,46.2
2019-05-18T13:21:58.662Z,46.2
2019-05-18T13:23:00.574Z,45.8
2019-05-18T13:24:02.440Z,47
2019-05-18T13:25:04.313Z,44.2
2019-05-18T13:26:06.198Z,45.8
2019-05-18T13:27:08.101Z,46
2019-05-18T13:28:10.018Z,45.5
2019-05-18T13:29:11.891Z,45.9
2019-05-18T13:30:13.798Z,46.8
2019-05-18T13:31:15.377Z,47.2
2019-05-18T13:32:17.254Z,48.2
2019-05-18T13:33:19.223Z,46.1
2019-05-18T13:34:21.097Z,45.8
2019-05-18T13:35:22.969Z,45.8
2019-05-18T13:36:24.839Z,48.4
2019-05-18T13:37:26.434Z,46.5
2019-05-18T13:38:28.045Z,45.9
2019-05-18T13:39:29.371Z,46.3
2019-05-18T13:40:31.244Z,46.9
2019-05-18T13:41:33.124Z,48.7
2019-05-18T13:42:35.009Z,47.2
2019-05-18T13:43:36.892Z,45.1
2019-05-18T13:44:38.834Z,44.6
2019-05-18T13:45:40.457Z,44.9
2019-05-18T13:46:42.417Z,44.6
2019-05-18T13:47:44.294Z,44.5
2019-05-18T13:48:46.181Z,46.7
2019-05-18T13:49:48.067Z,46
2019-05-18T13:50:49.949Z,45.5